createdAt,value
2023-03-11T00:00:23.076Z,0.59
2023-03-11T00:02:51.592Z,0.42
2023-03-11T00:05:24.787Z,0.73
2023-03-11T00:07:52.105Z,0.44
2023-03-11T00:10:29.845Z,0.61
2023-03-11T00:12:57.803Z,0.66
2023-03-11T00:15:25.368Z,0.59
2023-03-11T00:17:52.440Z,0.86
2023-03-11T00:20:26.927Z,0.81
2023-03-11T00:22:54.232Z,0.55
2023-03-11T00:25:22.591Z,0.60
2023-03-11T00:27:49.535Z,0.51
2023-03-11T00:30:17.836Z,0.97
2023-03-11T00:32:44.661Z,0.68
2023-03-11T00:35:17.120Z,0.90
2023-03-11T00:37:45.712Z,0.52
2023-03-11T00:40:19.418Z,0.69
2023-03-11T00:42:46.209Z,0.54
2023-03-11T00:45:14.151Z,0.42
2023-03-11T00:47:41.029Z,0.75
2023-03-11T00:50:09.859Z,0.79
2023-03-11T00:52:36.676Z,0.79
2023-03-11T00:55:03.467Z,0.77
2023-03-11T00:57:30.551Z,0.98
2023-03-11T00:59:58.946Z,0.92
2023-03-11T01:02:25.899Z,0.60
2023-03-11T01:04:56.851Z,0.82
2023-03-11T01:07:23.587Z,0.56
2023-03-11T01:09:50.169Z,0.83
2023-03-11T01:12:16.766Z,0.82
2023-03-11T01:14:43.402Z,1.05
2023-03-11T01:17:10.277Z,1.20
2023-03-11T01:19:36.908Z,1.19
2023-03-11T01:22:03.670Z,0.75
2023-03-11T01:24:30.314Z,0.89
2023-03-11T01:26:57.018Z,0.92
2023-03-11T01:29:24.649Z,0.59
2023-03-11T01:31:51.466Z,0.93
2023-03-11T01:34:18.105Z,0.83
2023-03-11T01:36:44.657Z,0.66
2023-03-11T01:39:11.224Z,0.81
2023-03-11T01:41:37.795Z,0.73
2023-03-11T01:44:05.192Z,0.79
2023-03-11T01:46:54.081Z,0.85
2023-03-11T01:49:24.507Z,0.67
2023-03-11T01:51:57.146Z,0.49
2023-03-11T01:54:37.755Z,0.77
2023-03-11T01:57:12.460Z,0.94
2023-03-11T01:59:48.174Z,0.53
2023-03-11T02:02:20.336Z,0.58
2023-03-11T02:04:48.585Z,0.70
2023-03-11T02:07:16.096Z,0.71
2023-03-11T02:09:43.632Z,0.86
2023-03-11T02:12:13.447Z,0.91
2023-03-11T02:14:45.051Z,0.78
2023-03-11T02:17:11.939Z,0.71
2023-03-11T02:19:41.544Z,0.93
2023-03-11T02:22:10.399Z,0.61
2023-03-11T02:24:49.257Z,0.76
2023-03-11T02:27:20.028Z,0.48
2023-03-11T02:29:51.539Z,0.70
2023-03-11T02:32:20.106Z,0.74
2023-03-11T02:34:46.883Z,0.74
2023-03-11T02:37:16.680Z,0.73
2023-03-11T02:39:52.207Z,0.80
2023-03-11T02:42:24.649Z,0.57
2023-03-11T02:45:05.968Z,0.97
2023-03-11T02:47:34.781Z,0.86
2023-03-11T02:50:01.807Z,0.70
2023-03-11T02:52:33.635Z,0.55
2023-03-11T02:55:00.438Z,0.71
2023-03-11T02:57:27.282Z,0.50
2023-03-11T02:59:54.129Z,0.42
2023-03-11T03:02:21.032Z,0.70
2023-03-11T03:04:48.074Z,0.96
2023-03-11T03:07:15.701Z,0.68
2023-03-11T03:09:42.337Z,0.73
2023-03-11T03:12:09.055Z,0.85
2023-03-11T03:14:36.449Z,0.96
2023-03-11T03:17:03.206Z,0.71
2023-03-11T03:19:29.860Z,0.51
2023-03-11T03:21:56.658Z,0.63
2023-03-11T03:24:24.233Z,0.76
2023-03-11T03:26:51.940Z,0.83
2023-03-11T03:29:19.057Z,0.75
2023-03-11T03:31:47.750Z,0.87
2023-03-11T03:34:15.861Z,0.86
2023-03-11T03:36:42.663Z,0.55
2023-03-11T03:39:09.450Z,0.56
2023-03-11T03:41:37.431Z,0.78
2023-03-11T03:44:05.492Z,0.54
2023-03-11T03:46:34.183Z,0.49
2023-03-11T03:49:01.535Z,0.41
2023-03-11T03:51:30.001Z,0.65
2023-03-11T03:54:11.227Z,0.71
2023-03-11T03:56:37.931Z,0.34
2023-03-11T03:59:04.611Z,0.73
2023-03-11T04:01:37.596Z,0.39
2023-03-11T04:04:04.376Z,0.71
2023-03-11T04:06:31.090Z,0.70
2023-03-11T04:09:02.286Z,0.61
2023-03-11T04:11:32.864Z,0.76
2023-03-11T04:14:02.481Z,0.74
2023-03-11T04:16:30.141Z,0.69
2023-03-11T04:19:05.786Z,0.84
2023-03-11T04:21:33.395Z,0.98
2023-03-11T04:24:00.624Z,0.66
2023-03-11T04:26:31.488Z,0.91
2023-03-11T04:28:58.565Z,0.80
2023-03-11T04:31:27.700Z,0.77
2023-03-11T04:33:54.797Z,0.53
2023-03-11T04:36:21.656Z,0.71
2023-03-11T04:38:49.170Z,0.67
2023-03-11T04:41:16.399Z,0.85
2023-03-11T04:43:44.697Z,1.04
2023-03-11T04:46:11.372Z,0.65
2023-03-11T04:48:39.975Z,0.53
2023-03-11T04:51:07.875Z,0.71
2023-03-11T04:53:34.886Z,0.74
2023-03-11T04:56:02.048Z,0.66
2023-03-11T04:58:29.830Z,0.34
2023-03-11T05:00:56.714Z,0.35
2023-03-11T05:03:24.333Z,0.39
2023-03-11T05:05:53.171Z,0.74
2023-03-11T05:08:21.038Z,0.80
2023-03-11T05:10:47.650Z,0.82
2023-03-11T05:13:14.404Z,0.83
2023-03-11T05:15:42.602Z,0.93
2023-03-11T05:18:09.357Z,0.80
2023-03-11T05:20:38.072Z,0.74
2023-03-11T05:23:05.959Z,0.86
2023-03-11T05:25:35.475Z,0.85
2023-03-11T05:28:03.458Z,0.74
2023-03-11T05:30:31.725Z,0.57
2023-03-11T05:32:58.674Z,0.76
2023-03-11T05:35:25.660Z,0.78
2023-03-11T05:37:53.625Z,0.61
2023-03-11T05:40:21.784Z,0.76
2023-03-11T05:42:48.964Z,0.70
2023-03-11T05:45:16.665Z,0.79
2023-03-11T05:47:45.841Z,0.67
2023-03-11T05:50:14.680Z,0.59
2023-03-11T05:52:43.285Z,0.59
2023-03-11T05:55:12.359Z,0.73
2023-03-11T05:57:41.159Z,0.93
2023-03-11T06:00:12.318Z,0.65
2023-03-11T06:02:45.943Z,0.56
2023-03-11T06:05:16.160Z,0.67
2023-03-11T06:07:44.575Z,0.78
2023-03-11T06:10:12.241Z,0.72
2023-03-11T06:12:39.990Z,0.70
2023-03-11T06:15:17.977Z,0.60
2023-03-11T06:17:44.557Z,0.38
2023-03-11T06:20:12.411Z,0.57
2023-03-11T06:22:40.471Z,0.69
2023-03-11T06:25:08.521Z,0.80
2023-03-11T06:27:36.811Z,0.66
2023-03-11T06:30:04.708Z,0.92
2023-03-11T06:32:37.744Z,0.74
2023-03-11T06:35:05.491Z,0.62
2023-03-11T06:37:36.117Z,0.68
2023-03-11T06:40:03.111Z,0.70
2023-03-11T06:42:29.823Z,0.41
2023-03-11T06:44:58.300Z,0.78
2023-03-11T06:47:25.695Z,0.62
2023-03-11T06:49:52.672Z,0.56
2023-03-11T06:52:20.188Z,0.76
2023-03-11T06:54:47.181Z,0.73
2023-03-11T06:57:16.231Z,0.79
2023-03-11T06:59:43.120Z,0.39
2023-03-11T07:02:13.865Z,0.71
2023-03-11T07:04:41.884Z,0.58
2023-03-11T07:07:08.462Z,0.69
2023-03-11T07:09:35.064Z,0.75
2023-03-11T07:12:04.809Z,0.86
2023-03-11T07:14:35.799Z,0.91
2023-03-11T07:17:02.639Z,0.80
2023-03-11T07:19:34.939Z,0.84
2023-03-11T07:22:01.565Z,0.75
2023-03-11T07:24:28.324Z,1.06
2023-03-11T07:26:55.188Z,1.05
2023-03-11T07:29:21.751Z,0.76
2023-03-11T07:31:49.203Z,0.75
2023-03-11T07:34:16.546Z,1.05
2023-03-11T07:36:43.636Z,1.04
2023-03-11T07:39:14.950Z,0.99
2023-03-11T07:41:41.938Z,1.06
2023-03-11T07:44:09.927Z,0.83
2023-03-11T07:46:36.628Z,1.26
2023-03-11T07:49:03.866Z,1.56
2023-03-11T07:51:33.278Z,1.33
2023-03-11T07:54:01.347Z,1.29
2023-03-11T07:56:31.112Z,1.03
2023-03-11T07:59:01.666Z,0.96
2023-03-11T08:01:36.429Z,0.55
2023-03-11T08:04:06.062Z,0.78
2023-03-11T08:06:34.143Z,1.06
2023-03-11T08:09:03.391Z,1.09
2023-03-11T08:11:31.046Z,1.39
2023-03-11T08:13:58.026Z,1.51
2023-03-11T08:16:25.457Z,1.65
2023-03-11T08:18:52.924Z,1.63
2023-03-11T08:21:25.631Z,1.57
2023-03-11T08:23:52.663Z,1.70
2023-03-11T08:26:21.819Z,1.70
2023-03-11T08:28:49.393Z,1.37
2023-03-11T08:31:28.895Z,1.57
2023-03-11T08:33:58.057Z,1.43
2023-03-11T08:36:24.986Z,1.67
2023-03-11T08:38:51.589Z,1.31
2023-03-11T08:41:18.808Z,1.40
2023-03-11T08:43:45.755Z,1.70
2023-03-11T08:46:27.962Z,1.80
2023-03-11T08:48:55.203Z,1.90
2023-03-11T08:51:23.557Z,1.87
2023-03-11T08:53:51.245Z,2.14
2023-03-11T08:56:18.773Z,2.19
2023-03-11T08:58:45.854Z,1.94
2023-03-11T09:01:13.456Z,2.33
2023-03-11T09:03:40.663Z,2.25
2023-03-11T09:06:11.450Z,2.41
2023-03-11T09:08:38.108Z,2.23
2023-03-11T09:11:05.648Z,2.31
2023-03-11T09:13:33.019Z,2.64
2023-03-11T09:16:00.144Z,2.75
2023-03-11T09:18:28.598Z,2.13
2023-03-11T09:20:58.387Z,2.53
2023-03-11T09:23:25.226Z,2.89
2023-03-11T09:25:51.852Z,2.80
2023-03-11T09:28:18.526Z,2.87
2023-03-11T09:30:45.144Z,2.99
2023-03-11T09:33:11.716Z,2.87
2023-03-11T09:35:39.439Z,3.02
2023-03-11T09:38:06.353Z,2.72
2023-03-11T09:40:57.930Z,2.93
2023-03-11T09:43:42.801Z,2.68
2023-03-11T09:46:43.416Z,2.66
2023-03-11T09:49:32.071Z,3.02
2023-03-11T09:52:04.628Z,2.68
2023-03-11T09:54:37.274Z,2.98
2023-03-11T09:57:05.663Z,3.40
2023-03-11T09:59:33.335Z,3.46
2023-03-11T10:02:00.765Z,3.65
2023-03-11T10:04:34.081Z,2.98
2023-03-11T10:07:03.266Z,3.45
2023-03-11T10:09:46.252Z,3.58
2023-03-11T10:12:37.610Z,3.30
2023-03-11T10:15:10.223Z,3.77
2023-03-11T10:21:59.264Z,3.83
2023-03-11T10:24:37.333Z,3.80
2023-03-11T10:27:14.421Z,4.06
2023-03-11T10:29:49.863Z,4.02
2023-03-11T10:32:19.401Z,3.75
2023-03-11T10:34:50.693Z,4.12
2023-03-11T10:37:24.233Z,4.25
2023-03-11T10:39:51.666Z,3.93
2023-03-11T10:42:23.450Z,3.91
2023-03-11T10:44:52.499Z,4.29
2023-03-11T10:47:23.086Z,4.22
2023-03-11T10:49:50.216Z,3.62
2023-03-11T10:52:17.188Z,4.18
2023-03-11T10:54:47.810Z,4.05
2023-03-11T10:57:25.569Z,4.39
2023-03-11T10:59:54.681Z,4.24
2023-03-11T11:02:30.529Z,4.33
2023-03-11T11:05:03.083Z,4.54
2023-03-11T11:07:34.670Z,4.41
2023-03-11T11:10:20.410Z,4.38
2023-03-11T11:12:56.583Z,4.99
2023-03-11T11:15:38.609Z,4.88
2023-03-11T11:18:58.017Z,5.37
2023-03-11T11:21:33.307Z,5.71
2023-03-11T11:24:24.957Z,5.40
2023-03-11T11:27:04.893Z,5.51
2023-03-11T11:29:31.946Z,5.61
2023-03-11T11:32:24.806Z,4.29
2023-03-11T11:34:57.524Z,5.29
2023-03-11T11:37:26.872Z,5.44
2023-03-11T11:39:58.178Z,5.50
2023-03-11T11:42:28.155Z,5.25
2023-03-11T11:45:05.621Z,4.95
2023-03-11T11:47:37.897Z,4.84
2023-03-11T11:50:13.222Z,4.97
2023-03-11T11:52:55.437Z,5.10
2023-03-11T11:55:30.672Z,5.39
2023-03-11T11:57:57.685Z,5.63
2023-03-11T12:00:41.169Z,5.93
2023-03-11T12:03:19.899Z,5.66
2023-03-11T12:05:58.978Z,5.37
2023-03-11T12:09:05.560Z,5.50
2023-03-11T12:11:42.111Z,5.18
2023-03-11T12:14:35.292Z,5.47
2023-03-11T12:17:04.597Z,5.69
2023-03-11T12:19:53.600Z,6.09
2023-03-11T12:22:58.904Z,6.42
2023-03-11T12:25:32.735Z,5.90
2023-03-11T12:27:59.290Z,6.35
2023-03-11T12:30:32.349Z,5.77
2023-03-11T12:33:25.365Z,6.06
2023-03-11T12:35:57.998Z,6.58
2023-03-11T12:38:38.430Z,7.06
2023-03-11T12:41:27.167Z,6.26
2023-03-11T12:43:53.778Z,6.61
2023-03-11T12:46:21.745Z,6.13
2023-03-11T12:48:50.907Z,5.86
2023-03-11T12:51:29.141Z,6.38
2023-03-11T12:53:59.012Z,5.85
2023-03-11T12:56:39.877Z,6.75
2023-03-11T12:59:41.961Z,6.92
2023-03-11T13:02:30.125Z,6.15
2023-03-11T13:05:13.003Z,6.95
2023-03-11T13:07:52.869Z,6.18
2023-03-11T13:10:35.073Z,7.48
2023-03-11T13:13:02.332Z,7.46
2023-03-11T13:15:33.879Z,6.75
2023-03-11T13:18:02.134Z,6.30
2023-03-11T13:20:43.952Z,7.23
2023-03-11T13:23:22.839Z,7.88
2023-03-11T13:25:53.153Z,7.70
2023-03-11T13:28:20.174Z,7.86
2023-03-11T13:31:10.436Z,8.26
2023-03-11T13:33:51.458Z,8.25
2023-03-11T13:36:55.321Z,8.79
2023-03-11T13:39:41.552Z,8.18
2023-03-11T13:42:36.408Z,8.15
2023-03-11T13:45:06.737Z,7.48
2023-03-11T13:47:36.731Z,7.52
2023-03-11T13:50:14.546Z,7.75
2023-03-11T13:52:53.718Z,7.39
2023-03-11T13:55:35.294Z,7.22
2023-03-11T13:58:13.689Z,6.80
2023-03-11T14:00:49.981Z,7.16
2023-03-11T14:03:22.016Z,7.71
2023-03-11T14:05:59.032Z,8.31
2023-03-11T14:08:29.070Z,8.41
2023-03-11T14:11:01.989Z,8.62
2023-03-11T14:13:30.852Z,8.25
2023-03-11T14:15:59.515Z,7.60
2023-03-11T14:18:32.218Z,8.38
2023-03-11T14:21:00.023Z,8.65
2023-03-11T14:23:34.558Z,8.29
2023-03-11T14:26:04.971Z,8.73
2023-03-11T14:28:36.572Z,8.08
2023-03-11T14:31:03.729Z,7.12
2023-03-11T14:33:30.372Z,7.87
2023-03-11T14:36:00.282Z,7.74
2023-03-11T14:38:30.366Z,7.83
2023-03-11T14:41:00.357Z,7.38
2023-03-11T14:43:35.152Z,7.54
2023-03-11T14:46:04.131Z,6.65
2023-03-11T14:48:40.072Z,7.14
2023-03-11T14:51:16.540Z,7.43
2023-03-11T14:53:44.888Z,7.22
2023-03-11T14:56:21.234Z,7.66
2023-03-11T14:59:09.611Z,8.22
2023-03-11T15:01:43.334Z,7.43
2023-03-11T15:04:17.197Z,7.31
2023-03-11T15:06:44.980Z,7.15
2023-03-11T15:09:14.821Z,7.28
2023-03-11T15:12:02.214Z,7.03
2023-03-11T15:14:35.373Z,7.22
2023-03-11T15:17:33.596Z,7.53
2023-03-11T15:20:02.184Z,7.75
2023-03-11T15:22:36.255Z,7.10
2023-03-11T15:25:05.341Z,7.29
2023-03-11T15:27:33.303Z,7.76
2023-03-11T15:30:01.304Z,7.95
2023-03-11T15:32:41.865Z,7.52
2023-03-11T15:35:08.499Z,8.09
2023-03-11T15:37:35.221Z,7.64
2023-03-11T15:40:44.609Z,7.76
2023-03-11T15:43:15.066Z,8.24
2023-03-11T15:45:42.033Z,8.33
2023-03-11T15:48:11.124Z,7.94
2023-03-11T15:50:53.831Z,7.73
2023-03-11T15:53:22.003Z,8.07
2023-03-11T15:55:49.120Z,7.84
2023-03-11T15:58:18.366Z,7.85
2023-03-11T16:00:50.458Z,7.83
2023-03-11T16:03:18.160Z,7.27
2023-03-11T16:05:45.366Z,7.06
2023-03-11T16:08:12.092Z,7.10
2023-03-11T16:10:39.406Z,6.53
2023-03-11T16:13:06.214Z,6.14
2023-03-11T16:15:35.359Z,5.87
2023-03-11T16:18:04.172Z,5.96
2023-03-11T16:20:38.664Z,6.30
2023-03-11T16:23:11.193Z,6.61
2023-03-11T16:25:39.714Z,6.61
2023-03-11T16:28:07.280Z,6.57
2023-03-11T16:30:34.896Z,6.55
2023-03-11T16:33:04.338Z,6.32
2023-03-11T16:35:32.021Z,6.55
2023-03-11T16:37:58.917Z,6.50
2023-03-11T16:40:28.216Z,6.20
2023-03-11T16:43:04.478Z,6.23
2023-03-11T16:45:31.311Z,6.30
2023-03-11T16:47:57.993Z,5.69
2023-03-11T16:50:24.857Z,5.86
2023-03-11T16:52:52.695Z,5.87
2023-03-11T16:55:20.143Z,6.02
2023-03-11T16:57:46.807Z,6.04
2023-03-11T17:00:14.915Z,6.07
2023-03-11T17:02:44.748Z,6.01
2023-03-11T17:05:11.861Z,5.94
2023-03-11T17:07:39.836Z,5.76
2023-03-11T17:10:08.219Z,5.86
2023-03-11T17:12:36.036Z,5.82
2023-03-11T17:15:03.502Z,5.81
2023-03-11T17:17:30.126Z,5.77
2023-03-11T17:19:56.655Z,5.76
2023-03-11T17:22:23.300Z,5.66
2023-03-11T17:24:49.826Z,5.53
2023-03-11T17:27:16.381Z,5.53
2023-03-11T17:29:43.021Z,5.41
2023-03-11T17:32:16.818Z,5.44
2023-03-11T17:34:43.763Z,5.33
2023-03-11T17:37:10.321Z,5.29
2023-03-11T17:39:36.896Z,5.10
2023-03-11T17:42:03.636Z,5.01
2023-03-11T17:44:44.579Z,4.84
2023-03-11T17:47:15.445Z,4.84
2023-03-11T17:49:42.076Z,4.76
2023-03-11T17:52:08.655Z,4.71
2023-03-11T17:54:35.392Z,4.62
2023-03-11T17:57:01.977Z,4.56
2023-03-11T17:59:28.507Z,4.45
2023-03-11T18:01:55.259Z,4.51
2023-03-11T18:04:21.944Z,4.48
2023-03-11T18:06:48.550Z,4.38
2023-03-11T18:09:16.787Z,4.24
2023-03-11T18:11:43.365Z,4.20
2023-03-11T18:14:10.143Z,4.07
2023-03-11T18:16:36.798Z,4.03
2023-03-11T18:19:03.557Z,3.94
2023-03-11T18:21:30.990Z,3.87
2023-03-11T18:24:00.334Z,3.88
2023-03-11T18:26:28.770Z,3.83
2023-03-11T18:28:57.514Z,3.78
2023-03-11T18:31:25.392Z,3.80
2023-03-11T18:33:58.966Z,3.64
2023-03-11T18:36:33.532Z,3.60
2023-03-11T18:39:01.653Z,3.66
2023-03-11T18:41:31.784Z,3.51
2023-03-11T18:43:58.952Z,3.38
2023-03-11T18:46:28.360Z,3.26
2023-03-11T18:48:59.050Z,3.27
2023-03-11T18:51:31.155Z,3.30
2023-03-11T18:53:57.921Z,3.17
2023-03-11T18:56:24.558Z,3.11
2023-03-11T18:58:51.257Z,3.12
2023-03-11T19:01:20.401Z,3.08
2023-03-11T19:03:52.688Z,3.00
2023-03-11T19:06:19.417Z,2.84
2023-03-11T19:08:46.078Z,2.79
2023-03-11T19:11:15.666Z,2.65
2023-03-11T19:13:48.302Z,2.58
2023-03-11T19:16:20.859Z,2.62
2023-03-11T19:18:47.603Z,2.58
2023-03-11T19:21:16.178Z,2.61
2023-03-11T19:23:44.582Z,2.63
2023-03-11T19:26:11.992Z,2.61
2023-03-11T19:28:38.643Z,2.55
2023-03-11T19:31:05.822Z,2.65
2023-03-11T19:33:32.658Z,2.60
2023-03-11T19:36:02.366Z,2.57
2023-03-11T19:38:29.517Z,2.59
2023-03-11T19:41:06.512Z,2.53
2023-03-11T19:43:35.549Z,2.51
2023-03-11T19:46:03.616Z,2.46
2023-03-11T19:48:30.352Z,2.48
2023-03-11T19:50:58.550Z,2.47
2023-03-11T19:53:26.412Z,2.55
2023-03-11T19:55:55.691Z,2.46
2023-03-11T19:58:24.357Z,2.50
2023-03-11T20:00:51.539Z,2.58
2023-03-11T20:03:19.375Z,2.50
2023-03-11T20:05:46.918Z,2.43
2023-03-11T20:08:16.448Z,2.38
2023-03-11T20:10:45.870Z,2.47
2023-03-11T20:13:13.256Z,2.51
2023-03-11T20:15:40.398Z,2.55
2023-03-11T20:18:07.698Z,2.57
2023-03-11T20:20:36.955Z,2.55
2023-03-11T20:23:03.906Z,2.55
2023-03-11T20:25:34.774Z,2.55
2023-03-11T20:28:01.857Z,2.50
2023-03-11T20:30:28.878Z,2.37
2023-03-11T20:32:55.942Z,2.53
2023-03-11T20:35:23.111Z,2.53
2023-03-11T20:37:49.788Z,2.42
2023-03-11T20:40:18.362Z,2.40
2023-03-11T20:42:47.178Z,2.33
2023-03-11T20:45:21.983Z,2.31
2023-03-11T20:47:50.108Z,2.22
2023-03-11T20:50:17.718Z,2.12
2023-03-11T20:52:44.403Z,2.03
2023-03-11T20:55:11.947Z,2.00
2023-03-11T20:57:39.546Z,1.94
2023-03-11T21:00:11.266Z,1.91
2023-03-11T21:02:40.525Z,1.86
2023-03-11T21:05:08.593Z,1.79
2023-03-11T21:07:35.941Z,1.78
2023-03-11T21:10:05.497Z,1.82
2023-03-11T21:12:32.280Z,1.68
2023-03-11T21:15:00.967Z,1.63
2023-03-11T21:17:27.663Z,1.63
2023-03-11T21:19:54.313Z,1.60
2023-03-11T21:22:21.074Z,1.66
2023-03-11T21:24:54.629Z,1.70
2023-03-11T21:27:26.371Z,1.65
2023-03-11T21:29:57.884Z,1.69
2023-03-11T21:32:26.292Z,1.61
2023-03-11T21:34:57.552Z,1.64
2023-03-11T21:37:24.534Z,1.64
2023-03-11T21:39:51.501Z,1.58
2023-03-11T21:42:18.875Z,1.60
2023-03-11T21:44:45.708Z,1.54
2023-03-11T21:47:12.574Z,1.46
2023-03-11T21:49:39.432Z,1.52
2023-03-11T21:52:06.636Z,1.46
2023-03-11T21:54:33.434Z,1.48
2023-03-11T21:57:00.328Z,1.46
2023-03-11T21:59:27.018Z,1.43
2023-03-11T22:01:53.862Z,1.45
2023-03-11T22:04:20.717Z,1.44
2023-03-11T22:06:47.412Z,1.34
2023-03-11T22:09:14.266Z,1.23
2023-03-11T22:11:40.993Z,1.16
2023-03-11T22:14:07.719Z,1.16
2023-03-11T22:16:34.527Z,1.16
2023-03-11T22:19:01.553Z,1.19
2023-03-11T22:21:28.274Z,1.16
2023-03-11T22:23:54.983Z,1.12
2023-03-11T22:26:21.870Z,1.06
2023-03-11T22:28:48.574Z,1.06
2023-03-11T22:31:15.813Z,0.98
2023-03-11T22:33:42.527Z,0.91
2023-03-11T22:36:09.572Z,0.86
2023-03-11T22:38:37.493Z,0.92
2023-03-11T22:41:07.608Z,0.86
2023-03-11T22:43:35.200Z,0.91
2023-03-11T22:46:02.509Z,0.86
2023-03-11T22:48:29.251Z,0.79
2023-03-11T22:50:56.136Z,0.76
2023-03-11T22:53:24.873Z,0.77
2023-03-11T22:55:52.789Z,0.83
2023-03-11T22:58:19.926Z,0.83
2023-03-11T23:00:46.832Z,0.79
2023-03-11T23:03:13.676Z,0.75
2023-03-11T23:05:43.300Z,0.74
2023-03-11T23:08:12.565Z,0.79
2023-03-11T23:10:40.943Z,0.85
2023-03-11T23:13:08.091Z,0.88
2023-03-11T23:15:34.754Z,0.80
2023-03-11T23:18:01.404Z,0.77
2023-03-11T23:20:28.175Z,0.79
2023-03-11T23:22:54.735Z,0.81
2023-03-11T23:25:21.420Z,0.80
2023-03-11T23:27:48.111Z,0.74
2023-03-11T23:30:17.117Z,0.64
2023-03-11T23:32:44.972Z,0.63
2023-03-11T23:35:12.721Z,0.75
2023-03-11T23:37:39.720Z,0.73
2023-03-11T23:40:07.267Z,0.74
2023-03-11T23:42:35.122Z,0.80
2023-03-11T23:45:01.733Z,0.83
2023-03-11T23:47:28.718Z,0.90
2023-03-11T23:49:55.350Z,0.83
2023-03-11T23:52:22.251Z,0.82
2023-03-11T23:54:48.890Z,0.88
2023-03-11T23:57:15.541Z,0.89
2023-03-11T23:59:42.336Z,0.92
